LFRD

Dinard-Pleurtuit-Saint-Malo Airport

Dinard/Pleurtuit/Saint-Malo, France
TAF LFRD 202300Z 2100/2124 21020G30KT 5000 RA BKN015 TEMPO 2100/2102 22025G37KT 3000 RA BKN010 BECMG 2102/2104 28015G25KT 9999 NSW BKN025 BECMG 2112/2115 28012KT
Issued Valid From Valid To
Sep-20 @ 23:00 UTC
(an hour ago)
Sep-21 @ 00:00 UTC
(18 minutes ago)
Sep-22 @ 00:00 UTC
(in 24 hours)
to
to
to
to
TAF LFRD 202300Z 2100/2124 21020G30KT 5000 RA BKN015 TEMPO 2100/2102 22025G37KT 3000 RA BKN010 BECMG 2102/2104 28015G25KT 9999 NSW BKN025 BECMG 2112/2115 28012KT
Issued Sep-20 @ 23:00 UTC
(an hour ago)
Valid From Sep-21 @ 00:00 UTC
(18 minutes ago)
Valid To Sep-22 @ 00:00 UTC
(in 24 hours)
-
-
-
-